sensor_id;sensor_type;location;lat;lon;timestamp;temperature;humidity
45096;DHT22;30858;51.108;8.068;2023-03-03T00:02:12;-2.30;99.90
45096;DHT22;30858;51.108;8.068;2023-03-03T00:04:37;-2.30;99.90
45096;DHT22;30858;51.108;8.068;2023-03-03T00:07:04;-2.30;99.90
45096;DHT22;30858;51.108;8.068;2023-03-03T00:09:29;-2.40;99.90
45096;DHT22;30858;51.108;8.068;2023-03-03T00:11:57;-2.40;99.90
45096;DHT22;30858;51.108;8.068;2023-03-03T00:14:28;-2.40;99.90
45096;DHT22;30858;51.108;8.068;2023-03-03T00:16:54;-2.50;99.90
45096;DHT22;30858;51.108;8.068;2023-03-03T00:19:20;-2.40;99.90
45096;DHT22;30858;51.108;8.068;2023-03-03T00:21:47;-2.40;99.90
45096;DHT22;30858;51.108;8.068;2023-03-03T00:24:23;-2.50;99.90
45096;DHT22;30858;51.108;8.068;2023-03-03T00:26:51;-2.50;99.90
45096;DHT22;30858;51.108;8.068;2023-03-03T00:29:35;-2.50;99.90
45096;DHT22;30858;51.108;8.068;2023-03-03T00:34:37;-2.50;99.90
45096;DHT22;30858;51.108;8.068;2023-03-03T00:37:02;-2.50;99.90
45096;DHT22;30858;51.108;8.068;2023-03-03T00:39:31;-2.50;99.90
45096;DHT22;30858;51.108;8.068;2023-03-03T00:41:58;-2.50;99.90
45096;DHT22;30858;51.108;8.068;2023-03-03T00:52:40;-2.70;99.90
45096;DHT22;30858;51.108;8.068;2023-03-03T00:55:10;-2.70;99.90
45096;DHT22;30858;51.108;8.068;2023-03-03T00:57:35;-2.70;99.90
45096;DHT22;30858;51.108;8.068;2023-03-03T01:00:01;-2.80;99.90
45096;DHT22;30858;51.108;8.068;2023-03-03T01:02:27;-2.80;99.90
45096;DHT22;30858;51.108;8.068;2023-03-03T01:04:53;-2.90;99.90
45096;DHT22;30858;51.108;8.068;2023-03-03T01:07:22;-2.90;99.90
45096;DHT22;30858;51.108;8.068;2023-03-03T01:09:48;-3.00;99.90
45096;DHT22;30858;51.108;8.068;2023-03-03T01:12:13;-3.10;99.90
45096;DHT22;30858;51.108;8.068;2023-03-03T01:14:40;-3.10;99.90
45096;DHT22;30858;51.108;8.068;2023-03-03T01:17:06;-3.00;99.90
45096;DHT22;30858;51.108;8.068;2023-03-03T01:19:31;-3.00;99.90
45096;DHT22;30858;51.108;8.068;2023-03-03T01:21:57;-2.90;99.90
45096;DHT22;30858;51.108;8.068;2023-03-03T01:24:23;-2.90;99.90
45096;DHT22;30858;51.108;8.068;2023-03-03T01:26:48;-2.90;99.90
45096;DHT22;30858;51.108;8.068;2023-03-03T01:29:14;-3.00;99.90
45096;DHT22;30858;51.108;8.068;2023-03-03T01:31:39;-3.10;99.90
45096;DHT22;30858;51.108;8.068;2023-03-03T01:34:05;-3.20;99.90
45096;DHT22;30858;51.108;8.068;2023-03-03T01:36:32;-3.20;99.90
45096;DHT22;30858;51.108;8.068;2023-03-03T01:38:59;-3.20;99.90
45096;DHT22;30858;51.108;8.068;2023-03-03T01:41:28;-3.20;99.90
45096;DHT22;30858;51.108;8.068;2023-03-03T01:43:55;-3.20;99.90
45096;DHT22;30858;51.108;8.068;2023-03-03T01:48:50;-3.30;99.90
45096;DHT22;30858;51.108;8.068;2023-03-03T01:51:34;-3.30;99.90
45096;DHT22;30858;51.108;8.068;2023-03-03T01:54:03;-3.30;99.90
45096;DHT22;30858;51.108;8.068;2023-03-03T01:56:29;-3.40;99.90
45096;DHT22;30858;51.108;8.068;2023-03-03T01:59:43;-3.40;99.90
45096;DHT22;30858;51.108;8.068;2023-03-03T02:01:49;-3.50;99.90
45096;DHT22;30858;51.108;8.068;2023-03-03T02:04:16;-3.50;99.90
45096;DHT22;30858;51.108;8.068;2023-03-03T02:06:52;-3.40;99.90
45096;DHT22;30858;51.108;8.068;2023-03-03T02:09:44;-3.40;99.90
45096;DHT22;30858;51.108;8.068;2023-03-03T02:12:12;-3.50;99.90
45096;DHT22;30858;51.108;8.068;2023-03-03T02:14:39;-3.60;99.90
45096;DHT22;30858;51.108;8.068;2023-03-03T02:17:05;-3.60;99.90
45096;DHT22;30858;51.108;8.068;2023-03-03T02:19:42;-3.60;99.90
45096;DHT22;30858;51.108;8.068;2023-03-03T02:22:13;-3.60;99.90
45096;DHT22;30858;51.108;8.068;2023-03-03T02:24:56;-3.60;99.90
45096;DHT22;30858;51.108;8.068;2023-03-03T02:27:25;-3.60;99.90
45096;DHT22;30858;51.108;8.068;2023-03-03T02:29:51;-3.60;99.90
45096;DHT22;30858;51.108;8.068;2023-03-03T02:32:17;-3.50;99.90
45096;DHT22;30858;51.108;8.068;2023-03-03T02:34:48;-3.60;99.90
45096;DHT22;30858;51.108;8.068;2023-03-03T02:37:14;-3.50;99.90
45096;DHT22;30858;51.108;8.068;2023-03-03T02:39:39;-3.60;99.90
45096;DHT22;30858;51.108;8.068;2023-03-03T02:42:21;-3.60;99.90
45096;DHT22;30858;51.108;8.068;2023-03-03T02:44:48;-3.50;99.90
45096;DHT22;30858;51.108;8.068;2023-03-03T02:49:40;-3.70;99.90
45096;DHT22;30858;51.108;8.068;2023-03-03T02:52:08;-3.70;99.90
45096;DHT22;30858;51.108;8.068;2023-03-03T02:54:35;-3.70;99.90
45096;DHT22;30858;51.108;8.068;2023-03-03T02:57:01;-3.60;99.90
45096;DHT22;30858;51.108;8.068;2023-03-03T02:59:28;-3.70;99.90
45096;DHT22;30858;51.108;8.068;2023-03-03T03:01:53;-3.80;99.90
45096;DHT22;30858;51.108;8.068;2023-03-03T03:04:21;-3.80;99.90
45096;DHT22;30858;51.108;8.068;2023-03-03T03:06:47;-3.80;99.90
45096;DHT22;30858;51.108;8.068;2023-03-03T03:09:14;-3.90;99.90
45096;DHT22;30858;51.108;8.068;2023-03-03T03:11:40;-4.00;99.90
45096;DHT22;30858;51.108;8.068;2023-03-03T03:14:07;-3.90;99.90
45096;DHT22;30858;51.108;8.068;2023-03-03T03:16:33;-3.90;99.90
45096;DHT22;30858;51.108;8.068;2023-03-03T03:18:59;-4.00;99.90
45096;DHT22;30858;51.108;8.068;2023-03-03T03:21:25;-3.90;99.90
45096;DHT22;30858;51.108;8.068;2023-03-03T03:23:51;-4.00;99.90
45096;DHT22;30858;51.108;8.068;2023-03-03T03:26:16;-4.00;99.90
45096;DHT22;30858;51.108;8.068;2023-03-03T03:28:42;-4.10;99.90
45096;DHT22;30858;51.108;8.068;2023-03-03T03:31:09;-4.00;99.90
45096;DHT22;30858;51.108;8.068;2023-03-03T03:33:35;-3.90;99.90
45096;DHT22;30858;51.108;8.068;2023-03-03T03:36:01;-3.90;99.90
45096;DHT22;30858;51.108;8.068;2023-03-03T03:38:28;-4.00;99.90
45096;DHT22;30858;51.108;8.068;2023-03-03T03:40:54;-4.10;99.90
45096;DHT22;30858;51.108;8.068;2023-03-03T03:43:20;-4.00;99.90
45096;DHT22;30858;51.108;8.068;2023-03-03T03:45:45;-4.00;99.90
45096;DHT22;30858;51.108;8.068;2023-03-03T03:48:11;-4.00;99.90
45096;DHT22;30858;51.108;8.068;2023-03-03T03:50:37;-3.90;99.90
45096;DHT22;30858;51.108;8.068;2023-03-03T03:53:03;-3.80;99.90
45096;DHT22;30858;51.108;8.068;2023-03-03T03:55:29;-3.90;99.90
45096;DHT22;30858;51.108;8.068;2023-03-03T03:57:55;-3.80;99.90
45096;DHT22;30858;51.108;8.068;2023-03-03T04:00:21;-3.70;99.90
45096;DHT22;30858;51.108;8.068;2023-03-03T04:02:47;-3.60;99.90
45096;DHT22;30858;51.108;8.068;2023-03-03T04:05:13;-3.60;99.90
45096;DHT22;30858;51.108;8.068;2023-03-03T04:07:38;-3.50;99.90
45096;DHT22;30858;51.108;8.068;2023-03-03T04:10:04;-3.40;99.90
45096;DHT22;30858;51.108;8.068;2023-03-03T04:12:30;-3.40;99.90
45096;DHT22;30858;51.108;8.068;2023-03-03T04:15:05;-3.30;99.90
45096;DHT22;30858;51.108;8.068;2023-03-03T04:17:31;-3.20;99.90
45096;DHT22;30858;51.108;8.068;2023-03-03T04:19:57;-3.20;99.90
45096;DHT22;30858;51.108;8.068;2023-03-03T04:22:22;-3.20;99.90
45096;DHT22;30858;51.108;8.068;2023-03-03T04:24:48;-3.10;99.90
45096;DHT22;30858;51.108;8.068;2023-03-03T04:27:14;-3.10;99.90
45096;DHT22;30858;51.108;8.068;2023-03-03T04:29:40;-3.10;99.90
45096;DHT22;30858;51.108;8.068;2023-03-03T04:32:05;-3.00;99.90
45096;DHT22;30858;51.108;8.068;2023-03-03T04:34:31;-3.00;99.90
45096;DHT22;30858;51.108;8.068;2023-03-03T04:36:56;-2.90;99.90
45096;DHT22;30858;51.108;8.068;2023-03-03T04:39:22;-2.90;99.90
45096;DHT22;30858;51.108;8.068;2023-03-03T04:41:47;-2.90;99.90
45096;DHT22;30858;51.108;8.068;2023-03-03T04:44:13;-2.90;99.90
45096;DHT22;30858;51.108;8.068;2023-03-03T04:46:38;-2.90;99.90
45096;DHT22;30858;51.108;8.068;2023-03-03T04:51:33;-2.80;99.90
45096;DHT22;30858;51.108;8.068;2023-03-03T04:53:58;-2.70;99.90
45096;DHT22;30858;51.108;8.068;2023-03-03T04:56:24;-2.70;99.90
45096;DHT22;30858;51.108;8.068;2023-03-03T04:58:49;-2.70;99.90
45096;DHT22;30858;51.108;8.068;2023-03-03T05:01:15;-2.60;99.90
45096;DHT22;30858;51.108;8.068;2023-03-03T05:03:40;-2.40;99.90
45096;DHT22;30858;51.108;8.068;2023-03-03T05:06:06;-2.20;99.90
45096;DHT22;30858;51.108;8.068;2023-03-03T05:08:32;-2.20;99.90
45096;DHT22;30858;51.108;8.068;2023-03-03T05:10:57;-2.20;99.90
45096;DHT22;30858;51.108;8.068;2023-03-03T05:13:24;-2.10;99.90
45096;DHT22;30858;51.108;8.068;2023-03-03T05:15:52;-2.20;99.90
45096;DHT22;30858;51.108;8.068;2023-03-03T05:18:20;-2.20;99.90
45096;DHT22;30858;51.108;8.068;2023-03-03T05:20:46;-2.20;99.90
45096;DHT22;30858;51.108;8.068;2023-03-03T05:23:12;-2.10;99.90
45096;DHT22;30858;51.108;8.068;2023-03-03T05:25:39;-1.90;99.90
45096;DHT22;30858;51.108;8.068;2023-03-03T05:28:06;-1.80;99.90
45096;DHT22;30858;51.108;8.068;2023-03-03T05:30:31;-1.70;99.90
45096;DHT22;30858;51.108;8.068;2023-03-03T05:32:57;-1.60;99.90
45096;DHT22;30858;51.108;8.068;2023-03-03T05:35:24;-1.60;99.90
45096;DHT22;30858;51.108;8.068;2023-03-03T05:37:50;-1.60;99.90
45096;DHT22;30858;51.108;8.068;2023-03-03T05:40:17;-1.50;99.90
45096;DHT22;30858;51.108;8.068;2023-03-03T05:42:43;-1.60;99.90
45096;DHT22;30858;51.108;8.068;2023-03-03T05:45:09;-1.60;99.90
45096;DHT22;30858;51.108;8.068;2023-03-03T05:47:34;-1.60;99.90
45096;DHT22;30858;51.108;8.068;2023-03-03T05:50:00;-1.60;99.90
45096;DHT22;30858;51.108;8.068;2023-03-03T05:54:53;-1.50;99.90
45096;DHT22;30858;51.108;8.068;2023-03-03T05:57:19;-1.50;99.90
45096;DHT22;30858;51.108;8.068;2023-03-03T05:59:44;-1.50;99.90
45096;DHT22;30858;51.108;8.068;2023-03-03T06:02:10;-1.60;99.90
45096;DHT22;30858;51.108;8.068;2023-03-03T06:04:35;-1.50;99.90
45096;DHT22;30858;51.108;8.068;2023-03-03T06:11:54;-1.50;99.90
45096;DHT22;30858;51.108;8.068;2023-03-03T06:14:20;-1.50;99.90
45096;DHT22;30858;51.108;8.068;2023-03-03T06:16:46;-1.50;99.90
45096;DHT22;30858;51.108;8.068;2023-03-03T06:19:13;-1.50;99.90
45096;DHT22;30858;51.108;8.068;2023-03-03T06:21:39;-1.50;99.90
45096;DHT22;30858;51.108;8.068;2023-03-03T06:24:05;-1.50;99.90
45096;DHT22;30858;51.108;8.068;2023-03-03T06:26:31;-1.50;99.90
45096;DHT22;30858;51.108;8.068;2023-03-03T06:28:56;-1.50;99.90
45096;DHT22;30858;51.108;8.068;2023-03-03T06:31:22;-1.50;99.90
45096;DHT22;30858;51.108;8.068;2023-03-03T06:33:48;-1.50;99.90
45096;DHT22;30858;51.108;8.068;2023-03-03T06:36:14;-1.50;99.90
45096;DHT22;30858;51.108;8.068;2023-03-03T06:38:39;-1.50;99.90
45096;DHT22;30858;51.108;8.068;2023-03-03T06:41:05;-1.40;99.90
45096;DHT22;30858;51.108;8.068;2023-03-03T06:43:33;-1.40;99.90
45096;DHT22;30858;51.108;8.068;2023-03-03T06:45:59;-1.40;99.90
45096;DHT22;30858;51.108;8.068;2023-03-03T06:48:24;-1.50;99.90
45096;DHT22;30858;51.108;8.068;2023-03-03T06:55:43;-1.50;99.90
45096;DHT22;30858;51.108;8.068;2023-03-03T06:58:18;-1.50;99.90
45096;DHT22;30858;51.108;8.068;2023-03-03T07:00:58;-1.40;99.90
45096;DHT22;30858;51.108;8.068;2023-03-03T07:03:26;-1.50;99.90
45096;DHT22;30858;51.108;8.068;2023-03-03T07:05:54;-1.40;99.90
45096;DHT22;30858;51.108;8.068;2023-03-03T07:08:22;-1.40;99.90
45096;DHT22;30858;51.108;8.068;2023-03-03T07:10:49;-1.30;99.90
45096;DHT22;30858;51.108;8.068;2023-03-03T07:13:26;-1.40;99.90
45096;DHT22;30858;51.108;8.068;2023-03-03T07:15:54;-1.40;99.90
45096;DHT22;30858;51.108;8.068;2023-03-03T07:21:15;-1.40;99.90
45096;DHT22;30858;51.108;8.068;2023-03-03T07:23:41;-1.30;99.90
45096;DHT22;30858;51.108;8.068;2023-03-03T07:26:16;-1.30;99.90
45096;DHT22;30858;51.108;8.068;2023-03-03T07:28:44;-1.30;99.90
45096;DHT22;30858;51.108;8.068;2023-03-03T07:33:53;-1.20;99.90
45096;DHT22;30858;51.108;8.068;2023-03-03T07:36:27;-1.20;99.90
45096;DHT22;30858;51.108;8.068;2023-03-03T07:38:56;-1.20;99.90
45096;DHT22;30858;51.108;8.068;2023-03-03T07:41:22;-1.20;99.90
45096;DHT22;30858;51.108;8.068;2023-03-03T07:43:48;-1.10;99.90
45096;DHT22;30858;51.108;8.068;2023-03-03T07:48:50;-1.10;99.90
45096;DHT22;30858;51.108;8.068;2023-03-03T07:51:35;-1.10;99.90
45096;DHT22;30858;51.108;8.068;2023-03-03T07:54:29;-1.10;99.90
45096;DHT22;30858;51.108;8.068;2023-03-03T07:57:35;-1.00;99.90
45096;DHT22;30858;51.108;8.068;2023-03-03T08:02:40;-0.90;99.90
45096;DHT22;30858;51.108;8.068;2023-03-03T08:07:52;-1.00;99.90
45096;DHT22;30858;51.108;8.068;2023-03-03T08:10:37;-1.00;99.90
45096;DHT22;30858;51.108;8.068;2023-03-03T08:15:51;-1.10;99.90
45096;DHT22;30858;51.108;8.068;2023-03-03T08:18:37;-1.10;99.90
45096;DHT22;30858;51.108;8.068;2023-03-03T08:23:29;-1.10;99.90
45096;DHT22;30858;51.108;8.068;2023-03-03T08:25:55;-1.10;99.90
45096;DHT22;30858;51.108;8.068;2023-03-03T08:28:20;-1.00;99.90
45096;DHT22;30858;51.108;8.068;2023-03-03T08:30:47;-0.90;99.90
45096;DHT22;30858;51.108;8.068;2023-03-03T08:33:14;-0.90;99.90
45096;DHT22;30858;51.108;8.068;2023-03-03T08:35:40;-0.80;99.90
45096;DHT22;30858;51.108;8.068;2023-03-03T08:38:06;-0.80;99.90
45096;DHT22;30858;51.108;8.068;2023-03-03T08:40:33;-0.80;99.90
45096;DHT22;30858;51.108;8.068;2023-03-03T08:42:58;-0.80;99.90
45096;DHT22;30858;51.108;8.068;2023-03-03T08:45:25;-0.90;99.90
45096;DHT22;30858;51.108;8.068;2023-03-03T08:47:51;-0.90;99.90
45096;DHT22;30858;51.108;8.068;2023-03-03T08:50:17;-0.90;99.90
45096;DHT22;30858;51.108;8.068;2023-03-03T08:52:42;-0.80;99.90
45096;DHT22;30858;51.108;8.068;2023-03-03T08:55:08;-0.60;99.90
45096;DHT22;30858;51.108;8.068;2023-03-03T08:57:34;-0.60;99.90
45096;DHT22;30858;51.108;8.068;2023-03-03T09:00:00;-0.60;99.90
45096;DHT22;30858;51.108;8.068;2023-03-03T09:02:25;-0.60;99.90
45096;DHT22;30858;51.108;8.068;2023-03-03T09:04:51;-0.50;99.90
45096;DHT22;30858;51.108;8.068;2023-03-03T09:07:16;-0.50;99.90
45096;DHT22;30858;51.108;8.068;2023-03-03T09:09:42;-0.50;99.90
45096;DHT22;30858;51.108;8.068;2023-03-03T09:12:21;-0.40;99.90
45096;DHT22;30858;51.108;8.068;2023-03-03T09:14:50;-0.40;99.90
45096;DHT22;30858;51.108;8.068;2023-03-03T09:17:23;-0.40;99.90
45096;DHT22;30858;51.108;8.068;2023-03-03T09:19:50;-0.20;99.90
45096;DHT22;30858;51.108;8.068;2023-03-03T09:22:23;-0.20;99.90
45096;DHT22;30858;51.108;8.068;2023-03-03T09:24:56;-0.20;99.90
45096;DHT22;30858;51.108;8.068;2023-03-03T09:27:34;-0.20;99.90
45096;DHT22;30858;51.108;8.068;2023-03-03T09:32:51;0.00;99.90
45096;DHT22;30858;51.108;8.068;2023-03-03T09:35:38;0.20;99.90
45096;DHT22;30858;51.108;8.068;2023-03-03T09:38:27;0.00;99.90
45096;DHT22;30858;51.108;8.068;2023-03-03T09:41:20;0.00;99.90
45096;DHT22;30858;51.108;8.068;2023-03-03T09:49:45;0.50;99.90
45096;DHT22;30858;51.108;8.068;2023-03-03T09:52:29;0.50;99.90
45096;DHT22;30858;51.108;8.068;2023-03-03T09:55:00;0.50;99.90
45096;DHT22;30858;51.108;8.068;2023-03-03T09:57:56;0.50;99.90
45096;DHT22;30858;51.108;8.068;2023-03-03T10:00:50;0.60;99.90
45096;DHT22;30858;51.108;8.068;2023-03-03T10:06:28;0.80;99.90
45096;DHT22;30858;51.108;8.068;2023-03-03T10:11:31;1.00;99.90
45096;DHT22;30858;51.108;8.068;2023-03-03T10:19:57;1.40;99.90
45096;DHT22;30858;51.108;8.068;2023-03-03T10:22:42;1.40;99.90
45096;DHT22;30858;51.108;8.068;2023-03-03T10:30:57;1.80;99.90
45096;DHT22;30858;51.108;8.068;2023-03-03T10:33:45;2.10;99.90
45096;DHT22;30858;51.108;8.068;2023-03-03T10:39:17;2.30;99.90
45096;DHT22;30858;51.108;8.068;2023-03-03T10:42:16;2.50;99.90
45096;DHT22;30858;51.108;8.068;2023-03-03T10:47:50;3.60;99.90
45096;DHT22;30858;51.108;8.068;2023-03-03T10:53:21;4.70;99.90
45096;DHT22;30858;51.108;8.068;2023-03-03T11:15:30;5.50;99.90
45096;DHT22;30858;51.108;8.068;2023-03-03T11:18:34;6.50;99.90
45096;DHT22;30858;51.108;8.068;2023-03-03T11:21:12;6.90;99.90
45096;DHT22;30858;51.108;8.068;2023-03-03T11:23:59;7.50;99.90
45096;DHT22;30858;51.108;8.068;2023-03-03T11:29:29;7.50;99.90
45096;DHT22;30858;51.108;8.068;2023-03-03T11:32:24;7.10;99.90
45096;DHT22;30858;51.108;8.068;2023-03-03T11:37:34;7.30;99.90
45096;DHT22;30858;51.108;8.068;2023-03-03T11:40:17;7.80;99.90
45096;DHT22;30858;51.108;8.068;2023-03-03T11:43:11;7.60;99.90
45096;DHT22;30858;51.108;8.068;2023-03-03T11:46:02;8.40;99.90
45096;DHT22;30858;51.108;8.068;2023-03-03T11:48:57;8.20;99.90
45096;DHT22;30858;51.108;8.068;2023-03-03T11:54:09;8.60;99.90
45096;DHT22;30858;51.108;8.068;2023-03-03T11:56:42;8.70;99.90
45096;DHT22;30858;51.108;8.068;2023-03-03T12:01:53;8.00;99.90
45096;DHT22;30858;51.108;8.068;2023-03-03T12:12:51;9.30;99.90
45096;DHT22;30858;51.108;8.068;2023-03-03T12:15:25;9.40;99.90
45096;DHT22;30858;51.108;8.068;2023-03-03T12:18:04;9.90;99.90
45096;DHT22;30858;51.108;8.068;2023-03-03T12:21:33;9.40;99.90
45096;DHT22;30858;51.108;8.068;2023-03-03T12:26:42;9.70;99.90
45096;DHT22;30858;51.108;8.068;2023-03-03T12:34:51;9.80;99.90
45096;DHT22;30858;51.108;8.068;2023-03-03T12:40:00;10.60;99.90
45096;DHT22;30858;51.108;8.068;2023-03-03T12:51:14;10.20;99.90
45096;DHT22;30858;51.108;8.068;2023-03-03T13:10:40;10.20;99.90
45096;DHT22;30858;51.108;8.068;2023-03-03T13:13:23;10.50;99.90
45096;DHT22;30858;51.108;8.068;2023-03-03T13:16:13;10.80;99.90
45096;DHT22;30858;51.108;8.068;2023-03-03T13:19:07;11.10;99.90
45096;DHT22;30858;51.108;8.068;2023-03-03T13:21:49;10.90;99.90
45096;DHT22;30858;51.108;8.068;2023-03-03T13:24:24;11.80;99.30
45096;DHT22;30858;51.108;8.068;2023-03-03T13:30:07;10.70;99.90
45096;DHT22;30858;51.108;8.068;2023-03-03T13:33:07;11.40;99.60
45096;DHT22;30858;51.108;8.068;2023-03-03T13:35:44;12.00;99.60
45096;DHT22;30858;51.108;8.068;2023-03-03T13:38:19;12.60;97.40
45096;DHT22;30858;51.108;8.068;2023-03-03T13:41:00;12.70;96.70
45096;DHT22;30858;51.108;8.068;2023-03-03T13:46:09;12.00;97.60
45096;DHT22;30858;51.108;8.068;2023-03-03T13:51:13;11.30;98.90
45096;DHT22;30858;51.108;8.068;2023-03-03T13:56:34;11.60;98.00
45096;DHT22;30858;51.108;8.068;2023-03-03T14:01:45;11.70;97.70
45096;DHT22;30858;51.108;8.068;2023-03-03T14:07:05;12.10;98.00
45096;DHT22;30858;51.108;8.068;2023-03-03T14:09:58;12.60;98.20
45096;DHT22;30858;51.108;8.068;2023-03-03T14:12:50;12.50;97.80
45096;DHT22;30858;51.108;8.068;2023-03-03T14:15:53;12.40;97.80
45096;DHT22;30858;51.108;8.068;2023-03-03T14:18:27;11.80;98.10
45096;DHT22;30858;51.108;8.068;2023-03-03T14:24:19;11.70;99.30
45096;DHT22;30858;51.108;8.068;2023-03-03T14:26:50;11.40;99.40
45096;DHT22;30858;51.108;8.068;2023-03-03T14:31:44;11.60;99.80
45096;DHT22;30858;51.108;8.068;2023-03-03T14:36:38;11.20;99.90
45096;DHT22;30858;51.108;8.068;2023-03-03T14:39:29;11.00;99.90
45096;DHT22;30858;51.108;8.068;2023-03-03T14:41:55;10.30;99.90
45096;DHT22;30858;51.108;8.068;2023-03-03T14:44:35;9.70;99.90
45096;DHT22;30858;51.108;8.068;2023-03-03T14:49:38;10.30;99.90
45096;DHT22;30858;51.108;8.068;2023-03-03T14:52:19;10.70;99.90
45096;DHT22;30858;51.108;8.068;2023-03-03T14:54:46;10.60;99.90
45096;DHT22;30858;51.108;8.068;2023-03-03T14:57:18;10.50;99.90
45096;DHT22;30858;51.108;8.068;2023-03-03T14:59:59;10.30;99.90
45096;DHT22;30858;51.108;8.068;2023-03-03T15:02:36;10.30;99.90
45096;DHT22;30858;51.108;8.068;2023-03-03T15:05:28;10.20;99.90
45096;DHT22;30858;51.108;8.068;2023-03-03T15:07:56;9.70;99.90
45096;DHT22;30858;51.108;8.068;2023-03-03T15:10:32;9.70;99.90
45096;DHT22;30858;51.108;8.068;2023-03-03T15:13:30;9.50;99.90
45096;DHT22;30858;51.108;8.068;2023-03-03T15:18:30;9.20;99.90
45096;DHT22;30858;51.108;8.068;2023-03-03T15:21:12;9.00;99.90
45096;DHT22;30858;51.108;8.068;2023-03-03T15:26:38;9.10;99.90
45096;DHT22;30858;51.108;8.068;2023-03-03T15:32:14;8.70;99.90
45096;DHT22;30858;51.108;8.068;2023-03-03T15:34:49;9.00;99.90
45096;DHT22;30858;51.108;8.068;2023-03-03T15:40:22;9.20;99.90
45096;DHT22;30858;51.108;8.068;2023-03-03T15:46:18;6.90;99.90
45096;DHT22;30858;51.108;8.068;2023-03-03T15:51:40;5.30;99.90
45096;DHT22;30858;51.108;8.068;2023-03-03T15:57:02;4.50;99.90
45096;DHT22;30858;51.108;8.068;2023-03-03T16:08:09;3.80;99.90
45096;DHT22;30858;51.108;8.068;2023-03-03T16:13:41;3.60;99.90
45096;DHT22;30858;51.108;8.068;2023-03-03T16:16:27;3.50;99.90
45096;DHT22;30858;51.108;8.068;2023-03-03T16:21:50;3.20;99.90
45096;DHT22;30858;51.108;8.068;2023-03-03T16:24:39;3.20;99.90
45096;DHT22;30858;51.108;8.068;2023-03-03T16:27:32;3.10;99.90
45096;DHT22;30858;51.108;8.068;2023-03-03T16:30:32;3.10;99.90
45096;DHT22;30858;51.108;8.068;2023-03-03T16:33:21;3.00;99.90
45096;DHT22;30858;51.108;8.068;2023-03-03T16:35:59;2.90;99.90
45096;DHT22;30858;51.108;8.068;2023-03-03T16:38:59;2.90;99.90
45096;DHT22;30858;51.108;8.068;2023-03-03T16:41:41;2.80;99.90
45096;DHT22;30858;51.108;8.068;2023-03-03T16:50:41;2.70;99.90
45096;DHT22;30858;51.108;8.068;2023-03-03T17:03:58;2.40;99.90
45096;DHT22;30858;51.108;8.068;2023-03-03T17:06:48;2.30;99.90
45096;DHT22;30858;51.108;8.068;2023-03-03T17:09:51;2.20;99.90
45096;DHT22;30858;51.108;8.068;2023-03-03T17:12:25;2.20;99.90
45096;DHT22;30858;51.108;8.068;2023-03-03T17:15:21;2.20;99.90
45096;DHT22;30858;51.108;8.068;2023-03-03T17:20:36;2.00;99.90
45096;DHT22;30858;51.108;8.068;2023-03-03T17:23:21;1.90;99.90
45096;DHT22;30858;51.108;8.068;2023-03-03T17:31:35;1.70;99.90
45096;DHT22;30858;51.108;8.068;2023-03-03T17:37:22;1.70;99.90
45096;DHT22;30858;51.108;8.068;2023-03-03T17:39:58;1.60;99.90
45096;DHT22;30858;51.108;8.068;2023-03-03T17:42:40;1.50;99.90
45096;DHT22;30858;51.108;8.068;2023-03-03T17:45:10;1.50;99.90
45096;DHT22;30858;51.108;8.068;2023-03-03T17:53:16;1.10;99.90
45096;DHT22;30858;51.108;8.068;2023-03-03T17:59:17;1.00;99.90
45096;DHT22;30858;51.108;8.068;2023-03-03T18:05:12;0.80;99.90
45096;DHT22;30858;51.108;8.068;2023-03-03T18:10:50;0.60;99.90
45096;DHT22;30858;51.108;8.068;2023-03-03T18:16:25;0.60;99.90
45096;DHT22;30858;51.108;8.068;2023-03-03T18:19:11;0.60;99.90
45096;DHT22;30858;51.108;8.068;2023-03-03T18:24:33;0.50;99.90
45096;DHT22;30858;51.108;8.068;2023-03-03T18:27:27;0.40;99.90
45096;DHT22;30858;51.108;8.068;2023-03-03T18:30:23;0.40;99.90
45096;DHT22;30858;51.108;8.068;2023-03-03T18:38:16;0.50;99.90
45096;DHT22;30858;51.108;8.068;2023-03-03T18:41:10;0.50;99.90
45096;DHT22;30858;51.108;8.068;2023-03-03T18:44:29;0.50;99.90
45096;DHT22;30858;51.108;8.068;2023-03-03T18:46:49;0.50;99.90
45096;DHT22;30858;51.108;8.068;2023-03-03T18:49:15;0.50;99.90
45096;DHT22;30858;51.108;8.068;2023-03-03T19:04:48;0.40;99.90
45096;DHT22;30858;51.108;8.068;2023-03-03T19:12:46;0.40;99.90
45096;DHT22;30858;51.108;8.068;2023-03-03T19:21:17;0.50;99.90
45096;DHT22;30858;51.108;8.068;2023-03-03T19:23:52;0.40;99.90
45096;DHT22;30858;51.108;8.068;2023-03-03T19:34:37;0.40;99.90
45096;DHT22;30858;51.108;8.068;2023-03-03T19:45:39;0.10;99.90
45096;DHT22;30858;51.108;8.068;2023-03-03T19:48:24;0.10;99.90
45096;DHT22;30858;51.108;8.068;2023-03-03T19:51:07;0.10;99.90
45096;DHT22;30858;51.108;8.068;2023-03-03T19:59:06;-0.10;99.90
45096;DHT22;30858;51.108;8.068;2023-03-03T20:04:18;-0.20;99.90
45096;DHT22;30858;51.108;8.068;2023-03-03T20:07:42;-0.30;99.90
45096;DHT22;30858;51.108;8.068;2023-03-03T20:09:47;-0.30;99.90
45096;DHT22;30858;51.108;8.068;2023-03-03T20:12:41;-0.30;99.90
45096;DHT22;30858;51.108;8.068;2023-03-03T20:18:33;-0.20;99.90
45096;DHT22;30858;51.108;8.068;2023-03-03T20:26:53;-0.40;99.90
45096;DHT22;30858;51.108;8.068;2023-03-03T20:32:27;-0.60;99.90
45096;DHT22;30858;51.108;8.068;2023-03-03T20:38:07;-0.70;99.90
45096;DHT22;30858;51.108;8.068;2023-03-03T20:40:38;-0.70;99.90
45096;DHT22;30858;51.108;8.068;2023-03-03T20:43:24;-0.60;99.90
45096;DHT22;30858;51.108;8.068;2023-03-03T20:48:48;-0.40;99.90
45096;DHT22;30858;51.108;8.068;2023-03-03T20:51:53;-0.30;99.90
45096;DHT22;30858;51.108;8.068;2023-03-03T20:54:26;-0.20;99.90
45096;DHT22;30858;51.108;8.068;2023-03-03T21:00:12;-0.20;99.90
45096;DHT22;30858;51.108;8.068;2023-03-03T21:03:10;-0.20;99.90
45096;DHT22;30858;51.108;8.068;2023-03-03T21:05:34;-0.30;99.90
45096;DHT22;30858;51.108;8.068;2023-03-03T21:08:04;-0.30;99.90
45096;DHT22;30858;51.108;8.068;2023-03-03T21:10:34;-0.20;99.90
45096;DHT22;30858;51.108;8.068;2023-03-03T21:13:38;-0.20;99.90
45096;DHT22;30858;51.108;8.068;2023-03-03T21:19:06;-0.10;99.90
45096;DHT22;30858;51.108;8.068;2023-03-03T21:21:42;-0.10;99.90
45096;DHT22;30858;51.108;8.068;2023-03-03T21:24:12;0.00;99.90
45096;DHT22;30858;51.108;8.068;2023-03-03T21:26:56;0.00;99.90
45096;DHT22;30858;51.108;8.068;2023-03-03T21:29:30;0.00;99.90
45096;DHT22;30858;51.108;8.068;2023-03-03T21:32:07;0.10;99.90
45096;DHT22;30858;51.108;8.068;2023-03-03T21:34:35;0.10;99.90
45096;DHT22;30858;51.108;8.068;2023-03-03T21:37:09;0.10;99.90
45096;DHT22;30858;51.108;8.068;2023-03-03T21:39:42;0.20;99.90
45096;DHT22;30858;51.108;8.068;2023-03-03T21:42:13;0.10;99.90
45096;DHT22;30858;51.108;8.068;2023-03-03T21:44:42;0.20;99.90
45096;DHT22;30858;51.108;8.068;2023-03-03T21:47:11;0.20;99.90
45096;DHT22;30858;51.108;8.068;2023-03-03T21:49:43;0.30;99.90
45096;DHT22;30858;51.108;8.068;2023-03-03T21:52:10;0.30;99.90
45096;DHT22;30858;51.108;8.068;2023-03-03T21:54:36;0.20;99.90
45096;DHT22;30858;51.108;8.068;2023-03-03T21:57:01;0.30;99.90
45096;DHT22;30858;51.108;8.068;2023-03-03T21:59:27;0.30;99.90
45096;DHT22;30858;51.108;8.068;2023-03-03T22:01:53;0.20;99.90